Dzuunmod, Mongolia
Current Conditions -  °F | °C
As of 12:00 PM on Sunday 26 Oct 2014 (Local Time) from ZMUB Reporting Station
Broken Clouds Broken Clouds  
Wind Chill: 29°   Ceiling: 10000
Heat Index: 37°   Visibility: 6mi
Dew Point: -4°   Wind: 13mph
Humidity: 17%   Direction: 150°SSE
Pressure: 30.39"   Gusts: NA
Location:  47.71°N, 106.95°E
Report Text: ZMUB 260400Z 15006MPS 9999 BKN100 03/M20 Q1029 NOSIG RMK QFE662.9 17 MOP
Loading
Personal Weather Stations






























Interactive Weather Map
Tropical Storm Tracking
New forecast layout! Learn more

10-Day Weather Forecast

Advertisements
Track Severe Weather on mobile